Time;durP1;ratioP1;P1;durP2;ratioP2;P2;SDS_P1;SDS_P2;PMS_P1;PMS_P2;Temp;Humidity;BMP_temperature;BMP_pressure;BME280_temperature;BME280_humidity;BME280_pressure;Samples;Min_cycle;Max_cycle;Signal;HPM_P1;HPM_P2
2022/12/04 00:00:40;;;;;;;;;;;;;;;0.08;100.00;96115.03;5088234;28;20422;-80
2022/12/04 00:03:06;;;;;;;;;;;;;;;0.11;100.00;96115.53;5074153;28;20013;-81
2022/12/04 00:05:32;;;;;;;;;;;;;;;0.11;100.00;96107.78;5094988;28;19969;-80
2022/12/04 00:07:58;;;;;;;;;;;;;;;0.11;100.00;96104.41;5095543;28;20008;-81
2022/12/04 00:10:23;;;;;;;;;;;;;;;0.10;100.00;96106.16;5094887;28;20487;-80
2022/12/04 00:12:49;;;;;;;;;;;;;;;0.09;100.00;96099.41;5094784;28;19978;-81
2022/12/04 00:15:15;;;;;;;;;;;;;;;0.04;100.00;96100.84;5095618;28;20015;-81
2022/12/04 00:17:41;;;;;;;;;;;;;;;0.01;100.00;96093.44;5094155;28;20005;-81
2022/12/04 00:20:07;;;;;;;;;;;;;;;0.01;100.00;96094.25;5097852;28;20046;-80
2022/12/04 00:22:33;;;;;;;;;;;;;;;0.07;100.00;96093.59;5096658;28;20323;-81
2022/12/04 00:24:59;;;;;;;;;;;;;;;0.12;100.00;96088.75;5093276;28;19969;-81
2022/12/04 00:27:25;;;;;;;;;;;;;;;0.17;100.00;96083.94;5096392;28;19958;-81
2022/12/04 00:29:51;;;;;;;;;;;;;;;0.23;100.00;96081.66;5085226;28;20036;-81
2022/12/04 00:32:17;;;;;;;;;;;;;;;0.26;100.00;96092.47;5094930;28;19961;-81
2022/12/04 00:34:43;;;;;;;;;;;;;;;0.29;100.00;96091.34;5092089;28;20049;-81
2022/12/04 00:37:09;;;;;;;;;;;;;;;0.30;100.00;96092.97;5094945;28;20388;-81
2022/12/04 00:39:34;;;;;;;;;;;;;;;0.27;100.00;96090.69;5093360;28;20383;-81
2022/12/04 00:42:00;;;;;;;;;;;;;;;0.18;100.00;96097.63;5095212;28;19986;-81
2022/12/04 00:44:26;;;;;;;;;;;;;;;0.10;100.00;96093.28;5085854;28;20009;-80
2022/12/04 00:46:52;;;;;;;;;;;;;;;0.04;100.00;96104.22;5096226;28;19969;-81
2022/12/04 00:49:18;;;;;;;;;;;;;;;-0.03;100.00;96105.84;5094857;28;20589;-80
2022/12/04 00:51:44;;;;;;;;;;;;;;;-0.05;100.00;96097.47;5096576;28;19977;-81
2022/12/04 00:54:09;;;;;;;;;;;;;;;-0.04;100.00;96097.31;5088024;28;20408;-80
2022/12/04 00:56:36;;;;;;;;;;;;;;;-0.03;100.00;96092.97;5096134;28;20043;-80
2022/12/04 00:59:01;;;;;;;;;;;;;;;-0.01;100.00;96091.03;5093030;28;19979;-81
2022/12/04 01:01:28;;;;;;;;;;;;;;;-0.01;100.00;96084.09;5092812;28;19975;-80
2022/12/04 01:03:54;;;;;;;;;;;;;;;-0.03;100.00;96087.81;5087107;28;19964;-80
2022/12/04 01:06:21;;;;;;;;;;;;;;;-0.05;100.00;96082.78;5095516;28;19965;-80
2022/12/04 01:08:48;;;;;;;;;;;;;;;-0.04;100.00;96084.44;5091892;28;20442;-81
2022/12/04 01:11:14;;;;;;;;;;;;;;;-0.06;100.00;96099.25;5089322;28;20361;-81
2022/12/04 01:13:40;;;;;;;;;;;;;;;-0.08;100.00;96095.22;5095562;28;19958;-81
2022/12/04 01:16:06;;;;;;;;;;;;;;;-0.09;100.00;96096.16;5078034;28;19999;-80
2022/12/04 01:18:32;;;;;;;;;;;;;;;-0.08;100.00;96093.44;5081673;28;19949;-81
2022/12/04 01:20:58;;;;;;;;;;;;;;;-0.01;100.00;96086.66;5091550;28;20296;-80
2022/12/04 01:23:24;;;;;;;;;;;;;;;0.06;100.00;96086.03;5091563;28;20003;-80
2022/12/04 01:25:55;;;;;;;;;;;;;;;0.10;100.00;96090.69;5095413;28;19969;-81
2022/12/04 01:28:21;;;;;;;;;;;;;;;0.08;100.00;96090.06;5091964;28;19999;-81
2022/12/04 01:31:19;;;;;;;;;;;;;;;0.06;100.00;96080.88;5093438;28;19949;-80
2022/12/04 01:33:46;;;;;;;;;;;;;;;0.03;100.00;96081.22;5063475;28;19959;-80
2022/12/04 01:36:13;;;;;;;;;;;;;;;0.02;100.00;96095.03;5077321;28;19974;-81
2022/12/04 01:38:39;;;;;;;;;;;;;;;0.01;100.00;96090.88;5093024;28;19969;-80
2022/12/04 01:41:06;;;;;;;;;;;;;;;0.02;100.00;96084.75;5093913;28;20045;-81
2022/12/04 01:43:33;;;;;;;;;;;;;;;0.04;100.00;96091.34;5088586;28;19949;-81
2022/12/04 01:46:00;;;;;;;;;;;;;;;0.04;100.00;96087.97;5094847;28;19969;-81
2022/12/04 01:48:29;;;;;;;;;;;;;;;0.08;100.00;96084.09;5084829;28;19953;-81
2022/12/04 01:51:16;;;;;;;;;;;;;;;0.12;100.00;96095.69;5094796;28;19947;-81
2022/12/04 01:53:45;;;;;;;;;;;;;;;0.16;100.00;96094.41;5092774;28;19961;-81
2022/12/04 01:56:12;;;;;;;;;;;;;;;0.13;100.00;96094.75;5092725;28;19950;-81
2022/12/04 01:58:40;;;;;;;;;;;;;;;0.08;100.00;96090.06;5094568;28;19947;-81
2022/12/04 02:01:07;;;;;;;;;;;;;;;0.11;100.00;96100.06;5086090;28;19971;-81
2022/12/04 02:03:33;;;;;;;;;;;;;;;0.13;100.00;96092.97;5093513;28;19955;-81
2022/12/04 02:05:59;;;;;;;;;;;;;;;0.11;100.00;96086.38;5092373;28;20017;-81
2022/12/04 02:08:26;;;;;;;;;;;;;;;0.08;100.00;96087.47;5094547;28;20033;-80
2022/12/04 02:11:16;;;;;;;;;;;;;;;0.12;100.00;96087.97;5092648;28;19956;-79
2022/12/04 02:14:00;;;;;;;;;;;;;;;0.19;100.00;96084.59;5088557;28;19954;-79
2022/12/04 02:16:29;;;;;;;;;;;;;;;0.26;100.00;96064.13;5094569;28;19946;-79
2022/12/04 02:19:21;;;;;;;;;;;;;;;0.27;100.00;96062.34;5087044;28;19960;-80
2022/12/04 02:21:49;;;;;;;;;;;;;;;0.29;100.00;96057.81;5069208;28;19952;-79
2022/12/04 02:24:18;;;;;;;;;;;;;;;0.25;100.00;96059.09;5077971;28;19952;-80
2022/12/04 02:26:57;;;;;;;;;;;;;;;0.19;100.00;96063.97;5090229;28;19992;-80
2022/12/04 02:29:42;;;;;;;;;;;;;;;0.16;100.00;96068.63;5088154;28;19950;-79
2022/12/04 02:32:31;;;;;;;;;;;;;;;0.15;100.00;96069.59;5124003;27;19949;-80
2022/12/04 02:35:03;;;;;;;;;;;;;;;0.21;100.00;96066.38;5127193;27;19978;-81
2022/12/04 02:37:30;;;;;;;;;;;;;;;0.26;100.00;96066.69;5086729;28;19953;-81
2022/12/04 02:40:02;;;;;;;;;;;;;;;0.29;100.00;96070.72;5092715;28;19953;-80
2022/12/04 02:42:28;;;;;;;;;;;;;;;0.26;100.00;96063.31;5081061;28;19953;-80
2022/12/04 02:44:59;;;;;;;;;;;;;;;0.29;100.00;96068.13;5093935;28;19962;-84
2022/12/04 02:47:25;;;;;;;;;;;;;;;0.34;100.00;96065.88;5089848;28;19963;-82
2022/12/04 02:50:01;;;;;;;;;;;;;;;0.39;100.00;96068.78;5092292;28;19949;-80
2022/12/04 02:52:32;;;;;;;;;;;;;;;0.35;100.00;96068.28;5091440;28;19952;-79
2022/12/04 02:55:02;;;;;;;;;;;;;;;0.31;100.00;96067.00;5092290;28;19963;-80
2022/12/04 02:57:30;;;;;;;;;;;;;;;0.31;100.00;96058.47;5092353;28;19956;-79
2022/12/04 02:59:57;;;;;;;;;;;;;;;0.30;100.00;96049.13;5086256;28;19951;-79
2022/12/04 03:02:42;;;;;;;;;;;;;;;0.32;100.00;96040.25;5091775;28;19971;-82
2022/12/04 03:05:31;;;;;;;;;;;;;;;0.38;100.00;96044.75;5080982;28;19962;-79
2022/12/04 03:07:59;;;;;;;;;;;;;;;0.39;100.00;96032.66;5086842;28;19969;-79
2022/12/04 03:10:29;;;;;;;;;;;;;;;0.40;100.00;96044.59;5093848;28;20329;-79
2022/12/04 03:13:02;;;;;;;;;;;;;;;0.35;100.00;96037.34;5080224;28;19949;-80
2022/12/04 03:15:28;;;;;;;;;;;;;;;0.32;100.00;96035.09;5093908;28;19948;-80
2022/12/04 03:17:57;;;;;;;;;;;;;;;0.30;100.00;96038.81;5090014;28;19946;-80
2022/12/04 03:20:24;;;;;;;;;;;;;;;0.28;100.00;96044.13;5085051;28;19951;-80
2022/12/04 03:22:53;;;;;;;;;;;;;;;0.31;100.00;96043.78;5092383;28;19948;-81
2022/12/04 03:25:20;;;;;;;;;;;;;;;0.27;100.00;96047.66;5090437;28;19957;-79
2022/12/04 03:27:58;;;;;;;;;;;;;;;0.27;100.00;96037.34;5090923;28;19954;-79
2022/12/04 03:30:23;;;;;;;;;;;;;;;0.24;100.00;96040.25;5091677;28;19998;-80
2022/12/04 03:33:01;;;;;;;;;;;;;;;0.26;100.00;96038.31;5083758;28;20403;-80
2022/12/04 03:35:48;;;;;;;;;;;;;;;0.22;100.00;96031.88;5084270;28;20449;-79
2022/12/04 03:38:32;;;;;;;;;;;;;;;0.20;100.00;96031.25;5093159;28;19948;-81
2022/12/04 03:41:02;;;;;;;;;;;;;;;0.23;100.00;96030.91;5085293;28;19953;-81
2022/12/04 03:43:32;;;;;;;;;;;;;;;0.27;100.00;96027.03;5091486;28;19954;-80
2022/12/04 03:46:04;;;;;;;;;;;;;;;0.31;100.00;96025.72;5091479;28;20428;-80
2022/12/04 03:49:02;;;;;;;;;;;;;;;0.37;100.00;96021.69;5093257;28;19955;-80
2022/12/04 03:51:32;;;;;;;;;;;;;;;0.44;100.00;96029.59;5053644;28;20393;-81
2022/12/04 03:54:00;;;;;;;;;;;;;;;0.48;100.00;96030.88;5092279;28;20446;-81
2022/12/04 03:56:38;;;;;;;;;;;;;;;0.49;100.00;96028.13;5090621;28;19949;-83
2022/12/04 03:59:25;;;;;;;;;;;;;;;0.48;100.00;96036.03;5093280;28;19947;-80
2022/12/04 04:01:52;;;;;;;;;;;;;;;0.42;100.00;96040.09;5090147;28;19951;-81
2022/12/04 04:04:22;;;;;;;;;;;;;;;0.34;100.00;96046.06;5090293;28;20361;-81
2022/12/04 04:06:52;;;;;;;;;;;;;;;0.27;100.00;96054.59;5091500;28;19967;-82
2022/12/04 04:09:20;;;;;;;;;;;;;;;0.16;100.00;96064.28;5093872;28;20414;-83
2022/12/04 04:11:48;;;;;;;;;;;;;;;0.14;100.00;96062.81;5094924;28;20306;-81
2022/12/04 04:25:35;;;;;;;;;;;;;;;0.23;100.00;96061.84;5085220;28;19955;-80
2022/12/04 04:28:01;;;;;;;;;;;;;;;0.17;100.00;96065.91;5094742;28;19959;-80
2022/12/04 04:30:28;;;;;;;;;;;;;;;0.18;100.00;96067.50;5092342;28;20312;-79
2022/12/04 04:33:07;;;;;;;;;;;;;;;0.19;100.00;96063.97;5096620;28;19960;-79
2022/12/04 04:35:54;;;;;;;;;;;;;;;0.23;100.00;96059.25;5094300;28;19979;-79
2022/12/04 04:38:26;;;;;;;;;;;;;;;0.24;100.00;96055.72;5092543;28;19963;-79
2022/12/04 04:40:58;;;;;;;;;;;;;;;0.20;100.00;96047.50;5096295;28;19949;-79
2022/12/04 04:43:33;;;;;;;;;;;;;;;0.22;100.00;96041.41;5090158;28;19950;-79
2022/12/04 04:46:04;;;;;;;;;;;;;;;0.25;100.00;96047.00;5087726;28;19972;-81
2022/12/04 04:48:30;;;;;;;;;;;;;;;0.29;100.00;96050.88;5088463;28;19954;-79
2022/12/04 04:50:57;;;;;;;;;;;;;;;0.30;100.00;96046.56;5095058;28;19945;-79
2022/12/04 04:53:27;;;;;;;;;;;;;;;0.29;100.00;96044.91;5093532;28;19955;-79
2022/12/04 04:55:53;;;;;;;;;;;;;;;0.29;100.00;96047.50;5093856;28;20412;-81
2022/12/04 04:58:19;;;;;;;;;;;;;;;0.30;100.00;96051.72;5094744;28;19989;-80
2022/12/04 05:01:00;;;;;;;;;;;;;;;0.31;100.00;96054.09;5093972;28;19957;-80
2022/12/04 05:03:27;;;;;;;;;;;;;;;0.27;100.00;96050.22;5082267;28;19961;-81
2022/12/04 05:05:53;;;;;;;;;;;;;;;0.22;100.00;96051.72;5090568;28;19965;-80
2022/12/04 05:08:19;;;;;;;;;;;;;;;0.18;100.00;96059.75;5122239;27;19965;-80
2022/12/04 05:10:45;;;;;;;;;;;;;;;0.18;100.00;96054.59;5105995;28;19963;-80
2022/12/04 05:13:11;;;;;;;;;;;;;;;0.23;100.00;96058.47;5091963;28;20097;-81
2022/12/04 05:15:37;;;;;;;;;;;;;;;0.25;100.00;96048.78;5094280;28;19953;-81
2022/12/04 05:18:04;;;;;;;;;;;;;;;0.29;100.00;96055.25;5094678;28;19946;-80
2022/12/04 05:20:30;;;;;;;;;;;;;;;0.32;100.00;96053.16;5078288;28;19954;-81
2022/12/04 05:22:56;;;;;;;;;;;;;;;0.29;100.00;96037.97;5094116;28;19952;-81
2022/12/04 05:25:22;;;;;;;;;;;;;;;0.31;100.00;96043.78;5095389;28;20346;-81
2022/12/04 05:27:48;;;;;;;;;;;;;;;0.36;100.00;96043.31;5094102;28;19991;-80
2022/12/04 05:30:14;;;;;;;;;;;;;;;0.37;100.00;96050.88;5095139;28;20527;-80
2022/12/04 05:32:40;;;;;;;;;;;;;;;0.39;100.00;96048.94;5101442;28;20015;-80
2022/12/04 05:35:06;;;;;;;;;;;;;;;0.39;100.00;96048.13;5094253;28;19995;-80
2022/12/04 05:37:34;;;;;;;;;;;;;;;0.34;100.00;96051.22;5095378;28;20431;-80
2022/12/04 05:40:00;;;;;;;;;;;;;;;0.31;100.00;96043.00;5095248;28;20396;-80
2022/12/04 05:42:26;;;;;;;;;;;;;;;0.30;100.00;96044.78;5094996;28;19955;-80
2022/12/04 05:44:52;;;;;;;;;;;;;;;0.34;100.00;96040.91;5087871;28;20425;-81
2022/12/04 05:47:18;;;;;;;;;;;;;;;0.39;100.00;96045.56;5091863;28;20014;-79
2022/12/04 05:49:44;;;;;;;;;;;;;;;0.34;100.00;96040.09;5092920;28;19962;-78
2022/12/04 05:52:09;;;;;;;;;;;;;;;0.29;100.00;96047.50;5094854;28;19986;-79
2022/12/04 05:54:35;;;;;;;;;;;;;;;0.26;100.00;96048.63;5094853;28;20033;-80
2022/12/04 05:57:01;;;;;;;;;;;;;;;0.24;100.00;96045.41;5104995;28;19971;-79
2022/12/04 05:59:27;;;;;;;;;;;;;;;0.21;100.00;96045.75;5094636;28;19956;-80
2022/12/04 06:01:53;;;;;;;;;;;;;;;0.18;100.00;96058.97;5094827;28;19951;-81
2022/12/04 06:04:19;;;;;;;;;;;;;;;0.20;100.00;96057.03;5093478;28;20003;-80
2022/12/04 06:06:45;;;;;;;;;;;;;;;0.24;100.00;96054.94;5094398;28;19970;-81
2022/12/04 06:09:11;;;;;;;;;;;;;;;0.24;100.00;96052.34;5100517;28;20312;-81
2022/12/04 06:11:38;;;;;;;;;;;;;;;0.29;100.00;96062.97;5094666;28;19952;-80
2022/12/04 06:14:06;;;;;;;;;;;;;;;0.33;100.00;96056.53;5094570;28;19944;-81
2022/12/04 06:16:36;;;;;;;;;;;;;;;0.37;100.00;96045.72;5094340;28;19953;-80
2022/12/04 06:19:04;;;;;;;;;;;;;;;0.42;100.00;96052.97;5094356;28;19950;-79
2022/12/04 06:21:31;;;;;;;;;;;;;;;0.46;100.00;96050.84;5094396;28;20314;-79
2022/12/04 06:23:57;;;;;;;;;;;;;;;0.50;100.00;96052.13;5093357;28;19949;-80
2022/12/04 06:26:24;;;;;;;;;;;;;;;0.52;100.00;96057.94;5101643;28;19964;-80
2022/12/04 06:28:53;;;;;;;;;;;;;;;0.53;100.00;96054.41;5094382;28;19954;-80
2022/12/04 06:31:19;;;;;;;;;;;;;;;0.52;100.00;96055.38;5094036;28;19945;-80
2022/12/04 06:33:45;;;;;;;;;;;;;;;0.52;100.00;96055.38;5093481;28;20420;-80
2022/12/04 06:36:17;;;;;;;;;;;;;;;0.49;100.00;96051.34;5094422;28;19977;-80
2022/12/04 06:38:43;;;;;;;;;;;;;;;0.47;100.00;96055.06;5093770;28;19947;-79
2022/12/04 06:41:14;;;;;;;;;;;;;;;0.45;100.00;96047.47;5092610;28;19951;-79
2022/12/04 06:43:40;;;;;;;;;;;;;;;0.44;100.00;96053.59;5095058;28;19960;-79
2022/12/04 06:46:14;;;;;;;;;;;;;;;0.45;100.00;96047.47;5094023;28;19946;-79
2022/12/04 06:48:40;;;;;;;;;;;;;;;0.49;100.00;96047.97;5092670;28;19957;-79
2022/12/04 06:51:07;;;;;;;;;;;;;;;0.50;100.00;96044.41;5093982;28;20325;-79
2022/12/04 06:53:34;;;;;;;;;;;;;;;0.50;100.00;96049.56;5092635;28;19955;-79
2022/12/04 06:56:00;;;;;;;;;;;;;;;0.51;100.00;96056.34;5093680;28;19958;-79
2022/12/04 06:58:27;;;;;;;;;;;;;;;0.47;100.00;96050.69;5093772;28;20312;-79
2022/12/04 07:00:53;;;;;;;;;;;;;;;0.41;100.00;96059.09;5092889;28;19954;-79
2022/12/04 07:03:19;;;;;;;;;;;;;;;0.37;100.00;96060.38;5092476;28;19961;-80
2022/12/04 07:05:46;;;;;;;;;;;;;;;0.37;100.00;96065.53;5093808;28;19958;-80
2022/12/04 07:08:12;;;;;;;;;;;;;;;0.39;100.00;96061.03;5093495;28;19968;-80
2022/12/04 07:10:38;;;;;;;;;;;;;;;0.38;100.00;96069.75;5092598;28;19947;-80
2022/12/04 07:13:04;;;;;;;;;;;;;;;0.34;100.00;96065.88;5092418;28;19954;-80
2022/12/04 07:15:31;;;;;;;;;;;;;;;0.31;100.00;96063.63;5093963;28;20344;-81
2022/12/04 07:17:57;;;;;;;;;;;;;;;0.27;100.00;96065.72;5093371;28;19966;-81
2022/12/04 07:20:23;;;;;;;;;;;;;;;0.30;100.00;96056.88;5109346;28;20002;-82
2022/12/04 07:22:49;;;;;;;;;;;;;;;0.34;100.00;96058.94;5092643;28;19955;-81
2022/12/04 07:25:15;;;;;;;;;;;;;;;0.39;100.00;96054.09;5092276;28;20501;-80
2022/12/04 07:27:40;;;;;;;;;;;;;;;0.43;100.00;96054.56;5093759;28;19971;-81
2022/12/04 07:30:07;;;;;;;;;;;;;;;0.49;100.00;96055.72;5093848;28;19951;-81
2022/12/04 07:32:33;;;;;;;;;;;;;;;0.50;100.00;96058.09;5093468;28;19944;-81
2022/12/04 07:34:59;;;;;;;;;;;;;;;0.52;100.00;96055.38;5092663;28;19981;-82
2022/12/04 07:37:25;;;;;;;;;;;;;;;0.54;100.00;96051.63;5093412;28;19951;-81
2022/12/04 07:39:51;;;;;;;;;;;;;;;0.55;100.00;96058.44;5093499;28;19949;-81
2022/12/04 07:42:17;;;;;;;;;;;;;;;0.57;100.00;96066.00;5093246;28;19962;-81
2022/12/04 07:44:44;;;;;;;;;;;;;;;0.57;100.00;96066.00;5098180;28;19956;-81
2022/12/04 07:47:09;;;;;;;;;;;;;;;0.60;100.00;96063.88;5096162;28;19962;-81
2022/12/04 07:49:35;;;;;;;;;;;;;;;0.64;100.00;96054.06;5097121;28;20352;-82
2022/12/04 07:52:01;;;;;;;;;;;;;;;0.67;100.00;96058.88;5079492;28;20006;-80
2022/12/04 07:54:27;;;;;;;;;;;;;;;0.68;100.00;96057.91;5096290;28;19953;-81
2022/12/04 07:56:53;;;;;;;;;;;;;;;0.70;100.00;96048.22;5095868;28;19950;-81
2022/12/04 07:59:19;;;;;;;;;;;;;;;0.71;100.00;96049.81;5097157;28;19986;-81
2022/12/04 08:01:45;;;;;;;;;;;;;;;0.71;100.00;96054.19;5097086;28;20501;-80
2022/12/04 08:04:11;;;;;;;;;;;;;;;0.69;100.00;96056.13;5097291;28;20003;-80
2022/12/04 08:06:37;;;;;;;;;;;;;;;0.68;100.00;96068.25;5097080;28;19975;-81
2022/12/04 08:09:03;;;;;;;;;;;;;;;0.68;100.00;96073.41;5096342;28;19949;-81
2022/12/04 08:11:29;;;;;;;;;;;;;;;0.70;100.00;96074.03;5095547;28;19948;-82
2022/12/04 08:13:56;;;;;;;;;;;;;;;0.71;100.00;96070.47;5097204;28;20396;-81
2022/12/04 08:16:23;;;;;;;;;;;;;;;0.72;100.00;96066.13;5096809;28;19953;-81
2022/12/04 08:18:49;;;;;;;;;;;;;;;0.73;100.00;96078.06;5096707;28;19945;-81
2022/12/04 08:21:16;;;;;;;;;;;;;;;0.66;100.00;96084.88;5096623;28;19950;-81
2022/12/04 08:23:42;;;;;;;;;;;;;;;0.56;100.00;96085.81;5096638;28;19950;-81
2022/12/04 08:26:09;;;;;;;;;;;;;;;0.48;100.00;96078.09;5078874;28;19959;-81
2022/12/04 08:28:35;;;;;;;;;;;;;;;0.48;100.00;96083.25;5097111;28;19964;-81
2022/12/04 08:31:11;;;;;;;;;;;;;;;0.49;100.00;96086.66;5095480;28;19950;-81
2022/12/04 08:33:37;;;;;;;;;;;;;;;0.50;100.00;96104.53;5096998;28;20336;-81
2022/12/04 08:36:07;;;;;;;;;;;;;;;0.49;100.00;96094.41;5095275;28;19979;-81
2022/12/04 08:38:33;;;;;;;;;;;;;;;0.50;100.00;96096.81;5078271;28;19967;-81
2022/12/04 08:41:00;;;;;;;;;;;;;;;0.53;100.00;96098.28;5094946;28;19954;-81
2022/12/04 08:43:26;;;;;;;;;;;;;;;0.51;100.00;96090.69;5096914;28;20313;-81
2022/12/04 08:45:56;;;;;;;;;;;;;;;0.49;100.00;96090.03;5096713;28;19954;-80
2022/12/04 08:48:22;;;;;;;;;;;;;;;0.50;100.00;96098.59;5096160;28;19968;-81
2022/12/04 08:50:48;;;;;;;;;;;;;;;0.50;100.00;96104.53;5096228;28;19951;-81
2022/12/04 08:53:14;;;;;;;;;;;;;;;0.48;100.00;96088.41;5096075;28;20042;-81
2022/12/04 08:55:39;;;;;;;;;;;;;;;0.49;100.00;96094.41;5095051;28;19953;-82
2022/12/04 08:58:05;;;;;;;;;;;;;;;0.51;100.00;96101.00;5095781;28;20031;-81
2022/12/04 09:00:31;;;;;;;;;;;;;;;0.49;100.00;96094.41;5096480;28;20008;-82
2022/12/04 09:02:57;;;;;;;;;;;;;;;0.47;100.00;96097.13;5094383;28;20036;-81
2022/12/04 09:05:23;;;;;;;;;;;;;;;0.65;100.00;96090.97;5094726;28;20461;-82
2022/12/04 09:07:49;;;;;;;;;;;;;;;0.95;100.00;96095.44;5094695;28;19968;-82
2022/12/04 09:10:15;;;;;;;;;;;;;;;1.07;100.00;96095.06;5094392;28;19952;-82
2022/12/04 09:12:40;;;;;;;;;;;;;;;1.04;100.00;96088.44;5093834;28;19948;-80
2022/12/04 09:15:07;;;;;;;;;;;;;;;1.09;100.00;96088.78;5092334;28;19958;-81
2022/12/04 09:17:33;;;;;;;;;;;;;;;1.02;100.00;96091.19;5095649;28;19952;-81
2022/12/04 09:19:59;;;;;;;;;;;;;;;0.97;100.00;96093.47;5093538;28;19946;-80
2022/12/04 09:22:25;;;;;;;;;;;;;;;0.94;100.00;96093.00;5090432;28;20416;-81
2022/12/04 09:24:51;;;;;;;;;;;;;;;0.89;100.00;96090.94;5093150;28;20398;-82
2022/12/04 09:27:16;;;;;;;;;;;;;;;0.92;100.00;96094.94;5095188;28;19972;-82
2022/12/04 09:29:42;;;;;;;;;;;;;;;0.94;100.00;96090.41;5082961;28;20022;-81
2022/12/04 09:32:08;;;;;;;;;;;;;;;0.94;100.00;96088.63;5088992;28;20421;-82
2022/12/04 09:34:34;;;;;;;;;;;;;;;0.92;100.00;96088.00;5106833;28;19975;-81
2022/12/04 09:37:00;;;;;;;;;;;;;;;0.88;100.00;96078.97;5099678;28;20580;-83
2022/12/04 09:39:26;;;;;;;;;;;;;;;0.91;100.00;96081.25;5095506;28;19996;-82
2022/12/04 09:42:01;;;;;;;;;;;;;;;0.91;100.00;96070.91;5097805;28;19956;-82
2022/12/04 09:44:39;;;;;;;;;;;;;;;0.88;100.00;96075.59;5095212;28;19960;-82
2022/12/04 09:47:11;;;;;;;;;;;;;;;0.87;100.00;96067.06;5102066;28;19976;-81
2022/12/04 09:49:42;;;;;;;;;;;;;;;0.88;100.00;96057.53;5095134;28;19959;-81
2022/12/04 09:52:17;;;;;;;;;;;;;;;0.89;100.00;96054.00;5090963;28;19965;-81
2022/12/04 09:54:43;;;;;;;;;;;;;;;0.95;100.00;96046.38;5091216;28;19946;-81
2022/12/04 09:57:20;;;;;;;;;;;;;;;1.00;100.00;96043.28;5088849;28;19958;-82
2022/12/04 09:59:47;;;;;;;;;;;;;;;1.08;100.00;96042.47;5102074;28;19955;-82
2022/12/04 10:02:43;;;;;;;;;;;;;;;1.14;100.00;96026.28;5096273;28;19955;-81
2022/12/04 10:05:17;;;;;;;;;;;;;;;1.19;100.00;96026.56;5068666;28;19958;-81
2022/12/04 10:07:46;;;;;;;;;;;;;;;1.20;100.00;96023.03;5091870;28;20360;-82
2022/12/04 10:10:16;;;;;;;;;;;;;;;1.23;100.00;96019.31;5099396;28;19949;-81
2022/12/04 10:12:56;;;;;;;;;;;;;;;1.26;100.00;96017.19;5086479;28;19961;-82
2022/12/04 10:15:28;;;;;;;;;;;;;;;1.29;100.00;96016.84;5093139;28;19951;-81
2022/12/04 10:17:54;;;;;;;;;;;;;;;1.31;100.00;96006.34;5094404;28;19948;-82
2022/12/04 10:20:27;;;;;;;;;;;;;;;1.33;100.00;96015.53;5090827;28;19947;-81
2022/12/04 10:23:11;;;;;;;;;;;;;;;1.31;100.00;96009.72;5079790;28;19945;-82
2022/12/04 10:25:38;;;;;;;;;;;;;;;1.26;100.00;96003.44;5095151;28;19946;-82
2022/12/04 10:28:24;;;;;;;;;;;;;;;1.23;100.00;96004.59;5094122;28;19953;-83
2022/12/04 10:30:52;;;;;;;;;;;;;;;1.23;100.00;96016.72;5084703;28;20371;-83
2022/12/04 10:33:26;;;;;;;;;;;;;;;1.26;100.00;96022.34;5079414;28;19982;-81
2022/12/04 10:35:53;;;;;;;;;;;;;;;1.29;100.00;96016.03;5091790;28;19969;-82
2022/12/04 10:38:42;;;;;;;;;;;;;;;1.32;100.00;96020.84;5083320;28;19981;-82
2022/12/04 10:41:11;;;;;;;;;;;;;;;1.37;100.00;96036.66;5084065;28;19957;-82
2022/12/04 10:43:37;;;;;;;;;;;;;;;1.37;100.00;96029.72;5098158;28;19953;-81
2022/12/04 10:46:03;;;;;;;;;;;;;;;1.34;100.00;96021.50;5093036;28;19946;-82
2022/12/04 10:48:37;;;;;;;;;;;;;;;1.33;100.00;96020.69;5083658;28;19968;-82
2022/12/04 10:51:03;;;;;;;;;;;;;;;1.33;100.00;96022.47;5091165;28;19957;-82
2022/12/04 10:53:30;;;;;;;;;;;;;;;1.32;100.00;96016.47;5092726;28;20317;-82
2022/12/04 10:56:06;;;;;;;;;;;;;;;1.43;100.00;96010.16;5092832;28;19947;-81
2022/12/04 10:58:32;;;;;;;;;;;;;;;1.52;100.00;96009.09;5094365;28;19940;-81
2022/12/04 11:01:03;;;;;;;;;;;;;;;1.55;100.00;96026.03;5094048;28;20367;-79
2022/12/04 11:03:30;;;;;;;;;;;;;;;1.50;100.00;96041.28;5094132;28;19957;-81
2022/12/04 11:05:58;;;;;;;;;;;;;;;1.40;100.00;96044.84;5090575;28;19954;-82
2022/12/04 11:08:26;;;;;;;;;;;;;;;1.36;100.00;96032.47;5090153;28;19966;-81
2022/12/04 11:11:12;;;;;;;;;;;;;;;1.35;100.00;96023.91;5094080;28;20025;-82
2022/12/04 11:13:39;;;;;;;;;;;;;;;1.46;100.00;96022.72;5091814;28;20301;-81
2022/12/04 11:16:06;;;;;;;;;;;;;;;1.69;100.00;96001.25;5080316;28;20309;-77
2022/12/04 11:18:34;;;;;;;;;;;;;;;1.69;100.00;96003.84;5087277;28;20413;-76
2022/12/04 11:21:12;;;;;;;;;;;;;;;1.59;100.00;96024.72;5096449;28;19957;-79
2022/12/04 11:23:46;;;;;;;;;;;;;;;1.50;100.00;96015.44;5096055;28;19948;-75
2022/12/04 11:26:12;;;;;;;;;;;;;;;1.44;100.00;96013.53;5095916;28;19956;-77
2022/12/04 11:28:39;;;;;;;;;;;;;;;1.41;100.00;96017.25;5094115;28;20451;-78
2022/12/04 11:31:08;;;;;;;;;;;;;;;1.39;100.00;96007.09;5091384;28;19965;-77
2022/12/04 11:33:36;;;;;;;;;;;;;;;1.38;100.00;96012.41;5097888;28;19957;-79
2022/12/04 11:36:05;;;;;;;;;;;;;;;1.35;100.00;96007.63;5093919;28;19974;-77
2022/12/04 11:38:32;;;;;;;;;;;;;;;1.34;100.00;95983.53;5095167;28;20330;-77
2022/12/04 11:41:00;;;;;;;;;;;;;;;1.34;100.00;95986.13;5095708;28;19952;-76
2022/12/04 11:43:27;;;;;;;;;;;;;;;1.36;100.00;95996.28;5089888;28;19958;-77
2022/12/04 11:45:58;;;;;;;;;;;;;;;1.38;100.00;95991.75;5107979;28;20308;-78
2022/12/04 11:48:24;;;;;;;;;;;;;;;1.38;100.00;96015.81;5095144;28;19979;-77
2022/12/04 11:51:00;;;;;;;;;;;;;;;1.30;100.00;96007.31;5097524;28;20419;-79
2022/12/04 11:53:46;;;;;;;;;;;;;;;1.15;100.00;96014.97;5096249;28;19947;-78
2022/12/04 11:56:19;;;;;;;;;;;;;;;1.04;100.00;96013.56;5097277;28;19957;-76
2022/12/04 11:58:54;;;;;;;;;;;;;;;0.98;100.00;96011.66;5091526;28;19956;-78
2022/12/04 12:01:32;;;;;;;;;;;;;;;0.92;100.00;96018.28;5093809;28;20288;-79
2022/12/04 12:04:17;;;;;;;;;;;;;;;0.93;100.00;96004.44;5095157;28;19952;-79
2022/12/04 12:06:55;;;;;;;;;;;;;;;1.00;100.00;96007.94;5096625;28;20431;-78
2022/12/04 12:09:31;;;;;;;;;;;;;;;1.09;100.00;96008.72;5092768;28;19992;-79
2022/12/04 12:12:00;;;;;;;;;;;;;;;1.20;100.00;95992.03;5097091;28;19947;-76
2022/12/04 12:14:43;;;;;;;;;;;;;;;1.28;100.00;95981.66;5092622;28;20313;-77
2022/12/04 12:17:12;;;;;;;;;;;;;;;1.33;100.00;95974.19;5094967;28;19951;-81
2022/12/04 12:19:59;;;;;;;;;;;;;;;1.34;100.00;95970.63;5096541;28;19954;-79
2022/12/04 12:22:43;;;;;;;;;;;;;;;1.37;100.00;95965.13;5096360;28;19953;-78
2022/12/04 12:25:12;;;;;;;;;;;;;;;1.40;100.00;95964.78;5087472;28;19953;-78
2022/12/04 12:27:44;;;;;;;;;;;;;;;1.43;100.00;95963.66;5094404;28;19965;-79
2022/12/04 12:30:23;;;;;;;;;;;;;;;1.46;100.00;95970.25;5092437;28;19956;-77
2022/12/04 12:32:52;;;;;;;;;;;;;;;1.41;100.00;95963.81;5085465;28;19949;-79
2022/12/04 12:35:21;;;;;;;;;;;;;;;1.39;100.00;95970.13;5088949;28;19965;-77
2022/12/04 12:37:51;;;;;;;;;;;;;;;1.39;100.00;95972.72;5102047;28;19959;-77
2022/12/04 12:40:25;;;;;;;;;;;;;;;1.41;100.00;95981.88;5097200;28;19947;-78
2022/12/04 12:43:00;;;;;;;;;;;;;;;1.43;100.00;95989.47;5093228;28;20587;-78
2022/12/04 12:45:44;;;;;;;;;;;;;;;1.44;100.00;95988.50;5093076;28;19965;-78
2022/12/04 12:48:20;;;;;;;;;;;;;;;1.41;100.00;95979.31;5093390;28;19959;-78
2022/12/04 12:50:51;;;;;;;;;;;;;;;1.39;100.00;95975.28;5093732;28;20423;-79
2022/12/04 12:53:20;;;;;;;;;;;;;;;1.38;100.00;95979.63;5094456;28;19949;-79
2022/12/04 12:55:52;;;;;;;;;;;;;;;1.41;100.00;95975.94;5090835;28;19948;-79
2022/12/04 12:58:28;;;;;;;;;;;;;;;1.41;100.00;95979.31;5092798;28;19968;-79
2022/12/04 13:00:53;;;;;;;;;;;;;;;1.39;100.00;95978.69;5088824;28;19956;-78
2022/12/04 13:03:28;;;;;;;;;;;;;;;1.41;100.00;95975.94;5085630;28;19954;-78
2022/12/04 13:05:58;;;;;;;;;;;;;;;1.44;100.00;95987.69;5093854;28;19956;-80
2022/12/04 13:08:55;;;;;;;;;;;;;;;1.42;100.00;95993.81;5094632;28;19972;-78